sensor_id;sensor_type;location;lat;lon;timestamp;P1;durP1;ratioP1;P2;durP2;ratioP2
35646;SDS011;28680;45.642;13.756;2023-12-14T00:00:25;0.95;;;0.75;;
35646;SDS011;28680;45.642;13.756;2023-12-14T00:02:51;1.55;;;0.80;;
35646;SDS011;28680;45.642;13.756;2023-12-14T00:05:17;1.50;;;0.90;;
35646;SDS011;28680;45.642;13.756;2023-12-14T00:19:34;2.22;;;0.65;;
35646;SDS011;28680;45.642;13.756;2023-12-14T00:25:46;1.10;;;0.52;;
35646;SDS011;28680;45.642;13.756;2023-12-14T00:42:11;0.32;;;0.30;;
35646;SDS011;28680;45.642;13.756;2023-12-14T00:44:37;1.20;;;0.50;;
35646;SDS011;28680;45.642;13.756;2023-12-14T01:00:26;2.05;;;0.40;;
35646;SDS011;28680;45.642;13.756;2023-12-14T01:08:13;0.40;;;0.30;;
35646;SDS011;28680;45.642;13.756;2023-12-14T01:10:40;0.38;;;0.30;;
35646;SDS011;28680;45.642;13.756;2023-12-14T01:13:05;0.30;;;0.30;;
35646;SDS011;28680;45.642;13.756;2023-12-14T01:15:31;0.70;;;0.35;;
35646;SDS011;28680;45.642;13.756;2023-12-14T01:17:57;3.45;;;0.20;;
35646;SDS011;28680;45.642;13.756;2023-12-14T01:20:23;0.35;;;0.32;;
35646;SDS011;28680;45.642;13.756;2023-12-14T01:22:49;0.40;;;0.40;;
35646;SDS011;28680;45.642;13.756;2023-12-14T01:25:15;0.32;;;0.30;;
35646;SDS011;28680;45.642;13.756;2023-12-14T01:27:42;0.20;;;0.20;;
35646;SDS011;28680;45.642;13.756;2023-12-14T01:40:55;0.17;;;0.17;;
35646;SDS011;28680;45.642;13.756;2023-12-14T01:43:21;0.10;;;0.10;;
35646;SDS011;28680;45.642;13.756;2023-12-14T01:45:47;0.20;;;0.20;;
35646;SDS011;28680;45.642;13.756;2023-12-14T01:48:13;0.20;;;0.20;;
35646;SDS011;28680;45.642;13.756;2023-12-14T01:50:39;0.10;;;0.10;;
35646;SDS011;28680;45.642;13.756;2023-12-14T01:53:04;0.20;;;0.20;;
35646;SDS011;28680;45.642;13.756;2023-12-14T01:55:30;0.10;;;0.10;;
35646;SDS011;28680;45.642;13.756;2023-12-14T01:57:56;1.33;;;0.57;;
35646;SDS011;28680;45.642;13.756;2023-12-14T02:03:16;0.30;;;0.20;;
35646;SDS011;28680;45.642;13.756;2023-12-14T02:05:42;0.20;;;0.20;;
35646;SDS011;28680;45.642;13.756;2023-12-14T02:08:08;0.10;;;0.10;;
35646;SDS011;28680;45.642;13.756;2023-12-14T02:10:34;0.20;;;0.20;;
35646;SDS011;28680;45.642;13.756;2023-12-14T02:13:03;0.20;;;0.20;;
35646;SDS011;28680;45.642;13.756;2023-12-14T02:15:29;0.20;;;0.20;;
35646;SDS011;28680;45.642;13.756;2023-12-14T02:17:55;0.17;;;0.13;;
35646;SDS011;28680;45.642;13.756;2023-12-14T02:20:21;0.20;;;0.20;;
35646;SDS011;28680;45.642;13.756;2023-12-14T02:22:53;0.13;;;0.13;;
35646;SDS011;28680;45.642;13.756;2023-12-14T02:25:20;2.63;;;0.20;;
35646;SDS011;28680;45.642;13.756;2023-12-14T02:27:46;0.82;;;0.20;;
35646;SDS011;28680;45.642;13.756;2023-12-14T02:30:13;0.10;;;0.10;;
35646;SDS011;28680;45.642;13.756;2023-12-14T02:32:39;2.28;;;0.20;;
35646;SDS011;28680;45.642;13.756;2023-12-14T02:35:06;0.20;;;0.20;;
35646;SDS011;28680;45.642;13.756;2023-12-14T02:37:32;0.20;;;0.20;;
35646;SDS011;28680;45.642;13.756;2023-12-14T02:39:59;0.20;;;0.20;;
35646;SDS011;28680;45.642;13.756;2023-12-14T02:42:26;0.20;;;0.20;;
35646;SDS011;28680;45.642;13.756;2023-12-14T02:44:53;0.20;;;0.20;;
35646;SDS011;28680;45.642;13.756;2023-12-14T02:47:19;0.20;;;0.20;;
35646;SDS011;28680;45.642;13.756;2023-12-14T02:49:45;0.22;;;0.22;;
35646;SDS011;28680;45.642;13.756;2023-12-14T02:52:11;0.50;;;0.30;;
35646;SDS011;28680;45.642;13.756;2023-12-14T02:54:38;0.90;;;0.20;;
35646;SDS011;28680;45.642;13.756;2023-12-14T02:57:04;0.25;;;0.20;;
35646;SDS011;28680;45.642;13.756;2023-12-14T02:59:30;1.13;;;0.25;;
35646;SDS011;28680;45.642;13.756;2023-12-14T03:01:56;0.20;;;0.20;;
35646;SDS011;28680;45.642;13.756;2023-12-14T03:17:07;0.20;;;0.20;;
35646;SDS011;28680;45.642;13.756;2023-12-14T03:19:46;0.20;;;0.20;;
35646;SDS011;28680;45.642;13.756;2023-12-14T03:22:12;0.20;;;0.20;;
35646;SDS011;28680;45.642;13.756;2023-12-14T03:24:38;1.15;;;0.30;;
35646;SDS011;28680;45.642;13.756;2023-12-14T03:27:07;0.32;;;0.25;;
35646;SDS011;28680;45.642;13.756;2023-12-14T03:29:32;0.45;;;0.30;;
35646;SDS011;28680;45.642;13.756;2023-12-14T03:31:58;0.25;;;0.20;;
35646;SDS011;28680;45.642;13.756;2023-12-14T03:34:25;0.30;;;0.30;;
35646;SDS011;28680;45.642;13.756;2023-12-14T03:36:50;0.20;;;0.20;;
35646;SDS011;28680;45.642;13.756;2023-12-14T03:39:17;0.30;;;0.30;;
35646;SDS011;28680;45.642;13.756;2023-12-14T03:41:43;0.30;;;0.28;;
35646;SDS011;28680;45.642;13.756;2023-12-14T03:44:09;0.20;;;0.20;;
35646;SDS011;28680;45.642;13.756;2023-12-14T03:46:34;0.20;;;0.20;;
35646;SDS011;28680;45.642;13.756;2023-12-14T04:22:04;0.20;;;0.20;;
35646;SDS011;28680;45.642;13.756;2023-12-14T04:24:31;2.65;;;0.22;;
35646;SDS011;28680;45.642;13.756;2023-12-14T04:26:57;0.43;;;0.30;;
35646;SDS011;28680;45.642;13.756;2023-12-14T04:29:32;0.40;;;0.30;;
35646;SDS011;28680;45.642;13.756;2023-12-14T04:31:58;0.20;;;0.20;;
35646;SDS011;28680;45.642;13.756;2023-12-14T04:34:23;0.20;;;0.20;;
35646;SDS011;28680;45.642;13.756;2023-12-14T04:36:49;0.17;;;0.17;;
35646;SDS011;28680;45.642;13.756;2023-12-14T04:39:15;0.30;;;0.30;;
35646;SDS011;28680;45.642;13.756;2023-12-14T04:41:42;0.20;;;0.20;;
35646;SDS011;28680;45.642;13.756;2023-12-14T04:44:08;0.20;;;0.20;;
35646;SDS011;28680;45.642;13.756;2023-12-14T04:46:35;0.20;;;0.20;;
35646;SDS011;28680;45.642;13.756;2023-12-14T04:49:01;0.90;;;0.30;;
35646;SDS011;28680;45.642;13.756;2023-12-14T04:51:27;0.22;;;0.22;;
35646;SDS011;28680;45.642;13.756;2023-12-14T04:53:53;0.20;;;0.20;;
35646;SDS011;28680;45.642;13.756;2023-12-14T04:56:19;0.20;;;0.20;;
35646;SDS011;28680;45.642;13.756;2023-12-14T04:58:51;0.45;;;0.40;;
35646;SDS011;28680;45.642;13.756;2023-12-14T05:01:17;1.13;;;0.60;;
35646;SDS011;28680;45.642;13.756;2023-12-14T05:03:43;0.30;;;0.30;;
35646;SDS011;28680;45.642;13.756;2023-12-14T05:06:09;0.82;;;0.50;;
35646;SDS011;28680;45.642;13.756;2023-12-14T05:08:35;0.63;;;0.50;;
35646;SDS011;28680;45.642;13.756;2023-12-14T05:11:01;0.52;;;0.40;;
35646;SDS011;28680;45.642;13.756;2023-12-14T05:13:26;0.70;;;0.30;;
35646;SDS011;28680;45.642;13.756;2023-12-14T05:15:52;0.93;;;0.50;;
35646;SDS011;28680;45.642;13.756;2023-12-14T05:18:18;0.40;;;0.40;;
35646;SDS011;28680;45.642;13.756;2023-12-14T05:20:47;1.00;;;0.60;;
35646;SDS011;28680;45.642;13.756;2023-12-14T05:23:13;0.40;;;0.40;;
35646;SDS011;28680;45.642;13.756;2023-12-14T05:25:39;0.40;;;0.40;;
35646;SDS011;28680;45.642;13.756;2023-12-14T05:28:05;0.40;;;0.30;;
35646;SDS011;28680;45.642;13.756;2023-12-14T05:30:31;0.28;;;0.28;;
35646;SDS011;28680;45.642;13.756;2023-12-14T05:32:56;0.30;;;0.30;;
35646;SDS011;28680;45.642;13.756;2023-12-14T05:35:22;0.20;;;0.20;;
35646;SDS011;28680;45.642;13.756;2023-12-14T05:37:48;0.20;;;0.20;;
35646;SDS011;28680;45.642;13.756;2023-12-14T05:40:14;0.28;;;0.28;;
35646;SDS011;28680;45.642;13.756;2023-12-14T05:42:39;0.28;;;0.28;;
35646;SDS011;28680;45.642;13.756;2023-12-14T05:45:06;0.40;;;0.40;;
35646;SDS011;28680;45.642;13.756;2023-12-14T05:47:32;0.40;;;0.30;;
35646;SDS011;28680;45.642;13.756;2023-12-14T05:49:59;0.32;;;0.30;;
35646;SDS011;28680;45.642;13.756;2023-12-14T05:52:29;0.40;;;0.30;;
35646;SDS011;28680;45.642;13.756;2023-12-14T05:54:55;0.32;;;0.30;;
35646;SDS011;28680;45.642;13.756;2023-12-14T05:57:21;0.30;;;0.30;;
35646;SDS011;28680;45.642;13.756;2023-12-14T05:59:47;0.20;;;0.20;;
35646;SDS011;28680;45.642;13.756;2023-12-14T06:02:15;0.47;;;0.30;;
35646;SDS011;28680;45.642;13.756;2023-12-14T06:04:41;1.02;;;0.40;;
35646;SDS011;28680;45.642;13.756;2023-12-14T06:07:06;0.85;;;0.60;;
35646;SDS011;28680;45.642;13.756;2023-12-14T06:09:32;1.67;;;0.47;;
35646;SDS011;28680;45.642;13.756;2023-12-14T06:12:03;0.90;;;0.60;;
35646;SDS011;28680;45.642;13.756;2023-12-14T06:14:30;0.93;;;0.55;;
35646;SDS011;28680;45.642;13.756;2023-12-14T06:16:56;0.63;;;0.63;;
35646;SDS011;28680;45.642;13.756;2023-12-14T06:19:22;1.75;;;0.70;;
35646;SDS011;28680;45.642;13.756;2023-12-14T06:21:48;0.52;;;0.50;;
35646;SDS011;28680;45.642;13.756;2023-12-14T06:24:14;1.25;;;0.65;;
35646;SDS011;28680;45.642;13.756;2023-12-14T06:26:41;0.85;;;0.80;;
35646;SDS011;28680;45.642;13.756;2023-12-14T06:29:08;0.70;;;0.50;;
35646;SDS011;28680;45.642;13.756;2023-12-14T06:31:34;1.13;;;0.60;;
35646;SDS011;28680;45.642;13.756;2023-12-14T06:34:00;1.23;;;1.13;;
35646;SDS011;28680;45.642;13.756;2023-12-14T06:36:29;1.33;;;0.60;;
35646;SDS011;28680;45.642;13.756;2023-12-14T06:38:56;1.27;;;0.73;;
35646;SDS011;28680;45.642;13.756;2023-12-14T06:41:23;1.48;;;1.05;;
35646;SDS011;28680;45.642;13.756;2023-12-14T06:43:49;1.48;;;0.90;;
35646;SDS011;28680;45.642;13.756;2023-12-14T06:46:15;2.08;;;1.08;;
35646;SDS011;28680;45.642;13.756;2023-12-14T06:51:23;5.00;;;1.67;;
35646;SDS011;28680;45.642;13.756;2023-12-14T06:53:49;2.05;;;1.50;;
35646;SDS011;28680;45.642;13.756;2023-12-14T06:57:26;1.52;;;1.10;;
35646;SDS011;28680;45.642;13.756;2023-12-14T06:59:54;0.57;;;0.50;;
35646;SDS011;28680;45.642;13.756;2023-12-14T07:02:19;4.53;;;0.70;;
35646;SDS011;28680;45.642;13.756;2023-12-14T07:04:45;1.27;;;0.82;;
35646;SDS011;28680;45.642;13.756;2023-12-14T07:07:11;3.42;;;0.90;;
35646;SDS011;28680;45.642;13.756;2023-12-14T07:09:38;2.58;;;1.40;;
35646;SDS011;28680;45.642;13.756;2023-12-14T07:12:07;1.83;;;1.10;;
35646;SDS011;28680;45.642;13.756;2023-12-14T07:15:30;3.38;;;1.60;;
35646;SDS011;28680;45.642;13.756;2023-12-14T07:17:56;1.67;;;1.00;;
35646;SDS011;28680;45.642;13.756;2023-12-14T07:20:21;2.53;;;1.33;;
35646;SDS011;28680;45.642;13.756;2023-12-14T07:22:47;2.60;;;1.67;;
35646;SDS011;28680;45.642;13.756;2023-12-14T07:25:13;6.53;;;1.92;;
35646;SDS011;28680;45.642;13.756;2023-12-14T07:27:39;3.63;;;1.70;;
35646;SDS011;28680;45.642;13.756;2023-12-14T07:30:05;3.90;;;2.17;;
35646;SDS011;28680;45.642;13.756;2023-12-14T07:48:09;4.38;;;2.33;;
35646;SDS011;28680;45.642;13.756;2023-12-14T07:50:54;4.97;;;2.60;;
35646;SDS011;28680;45.642;13.756;2023-12-14T07:53:20;5.93;;;3.17;;
35646;SDS011;28680;45.642;13.756;2023-12-14T07:55:46;3.58;;;1.65;;
35646;SDS011;28680;45.642;13.756;2023-12-14T07:58:12;4.00;;;1.85;;
35646;SDS011;28680;45.642;13.756;2023-12-14T08:00:38;3.58;;;1.60;;
35646;SDS011;28680;45.642;13.756;2023-12-14T08:03:04;5.43;;;1.80;;
35646;SDS011;28680;45.642;13.756;2023-12-14T08:05:30;3.08;;;1.63;;
35646;SDS011;28680;45.642;13.756;2023-12-14T08:07:56;3.58;;;1.73;;
35646;SDS011;28680;45.642;13.756;2023-12-14T08:10:23;3.55;;;1.75;;
35646;SDS011;28680;45.642;13.756;2023-12-14T08:12:49;4.72;;;2.00;;
35646;SDS011;28680;45.642;13.756;2023-12-14T08:15:17;3.85;;;1.80;;
35646;SDS011;28680;45.642;13.756;2023-12-14T08:17:43;3.20;;;1.40;;
35646;SDS011;28680;45.642;13.756;2023-12-14T08:20:10;2.38;;;1.40;;
35646;SDS011;28680;45.642;13.756;2023-12-14T08:22:37;4.95;;;1.90;;
35646;SDS011;28680;45.642;13.756;2023-12-14T08:25:14;3.88;;;2.05;;
35646;SDS011;28680;45.642;13.756;2023-12-14T08:27:41;3.85;;;1.63;;
35646;SDS011;28680;45.642;13.756;2023-12-14T08:30:09;3.20;;;1.20;;
35646;SDS011;28680;45.642;13.756;2023-12-14T08:32:35;4.13;;;2.50;;
35646;SDS011;28680;45.642;13.756;2023-12-14T08:35:01;3.47;;;1.73;;
35646;SDS011;28680;45.642;13.756;2023-12-14T08:37:27;6.20;;;1.95;;
35646;SDS011;28680;45.642;13.756;2023-12-14T08:39:53;2.90;;;1.30;;
35646;SDS011;28680;45.642;13.756;2023-12-14T08:42:19;4.53;;;1.55;;
35646;SDS011;28680;45.642;13.756;2023-12-14T08:44:45;1.45;;;0.80;;
35646;SDS011;28680;45.642;13.756;2023-12-14T08:47:10;2.15;;;0.70;;
35646;SDS011;28680;45.642;13.756;2023-12-14T08:49:36;5.57;;;1.73;;
35646;SDS011;28680;45.642;13.756;2023-12-14T08:52:02;2.28;;;1.00;;
35646;SDS011;28680;45.642;13.756;2023-12-14T08:54:29;1.50;;;0.63;;
35646;SDS011;28680;45.642;13.756;2023-12-14T08:56:55;3.88;;;0.80;;
35646;SDS011;28680;45.642;13.756;2023-12-14T08:59:21;1.73;;;0.90;;
35646;SDS011;28680;45.642;13.756;2023-12-14T09:01:49;2.28;;;1.08;;
35646;SDS011;28680;45.642;13.756;2023-12-14T09:04:15;2.22;;;0.80;;
35646;SDS011;28680;45.642;13.756;2023-12-14T09:06:41;1.58;;;0.68;;
35646;SDS011;28680;45.642;13.756;2023-12-14T09:09:10;2.72;;;0.60;;
35646;SDS011;28680;45.642;13.756;2023-12-14T09:11:36;1.88;;;0.60;;
35646;SDS011;28680;45.642;13.756;2023-12-14T09:14:02;28.13;;;6.18;;
35646;SDS011;28680;45.642;13.756;2023-12-14T09:16:28;28.85;;;6.03;;
35646;SDS011;28680;45.642;13.756;2023-12-14T09:18:53;30.33;;;5.55;;
35646;SDS011;28680;45.642;13.756;2023-12-14T09:21:19;15.02;;;3.58;;
35646;SDS011;28680;45.642;13.756;2023-12-14T09:23:45;22.52;;;4.57;;
35646;SDS011;28680;45.642;13.756;2023-12-14T09:26:11;11.32;;;3.30;;
35646;SDS011;28680;45.642;13.756;2023-12-14T09:28:37;8.15;;;1.90;;
35646;SDS011;28680;45.642;13.756;2023-12-14T09:31:04;3.03;;;1.00;;
35646;SDS011;28680;45.642;13.756;2023-12-14T09:33:30;3.20;;;1.23;;
35646;SDS011;28680;45.642;13.756;2023-12-14T09:35:56;0.93;;;0.60;;
35646;SDS011;28680;45.642;13.756;2023-12-14T09:38:22;3.08;;;0.98;;
35646;SDS011;28680;45.642;13.756;2023-12-14T09:40:47;2.28;;;0.85;;
35646;SDS011;28680;45.642;13.756;2023-12-14T09:43:13;1.35;;;0.57;;
35646;SDS011;28680;45.642;13.756;2023-12-14T09:45:40;1.58;;;0.63;;
35646;SDS011;28680;45.642;13.756;2023-12-14T09:48:10;1.02;;;0.45;;
35646;SDS011;28680;45.642;13.756;2023-12-14T09:50:38;1.45;;;0.55;;
35646;SDS011;28680;45.642;13.756;2023-12-14T09:53:05;1.40;;;0.60;;
35646;SDS011;28680;45.642;13.756;2023-12-14T09:55:41;2.08;;;0.85;;
35646;SDS011;28680;45.642;13.756;2023-12-14T10:00:37;1.65;;;0.45;;
35646;SDS011;28680;45.642;13.756;2023-12-14T10:05:49;0.40;;;0.35;;
35646;SDS011;28680;45.642;13.756;2023-12-14T10:08:15;2.08;;;1.15;;
35646;SDS011;28680;45.642;13.756;2023-12-14T10:10:42;0.93;;;0.60;;
35646;SDS011;28680;45.642;13.756;2023-12-14T10:13:08;1.10;;;0.52;;
35646;SDS011;28680;45.642;13.756;2023-12-14T10:15:42;1.02;;;0.65;;
35646;SDS011;28680;45.642;13.756;2023-12-14T11:06:44;5.65;;;1.67;;
35646;SDS011;28680;45.642;13.756;2023-12-14T11:09:21;8.35;;;1.75;;
35646;SDS011;28680;45.642;13.756;2023-12-14T11:14:18;6.55;;;1.92;;
35646;SDS011;28680;45.642;13.756;2023-12-14T11:16:48;18.42;;;2.60;;
35646;SDS011;28680;45.642;13.756;2023-12-14T11:24:36;7.27;;;2.20;;
35646;SDS011;28680;45.642;13.756;2023-12-14T11:27:11;4.15;;;1.30;;
35646;SDS011;28680;45.642;13.756;2023-12-14T11:29:37;7.28;;;1.98;;
35646;SDS011;28680;45.642;13.756;2023-12-14T11:32:07;3.00;;;1.38;;
35646;SDS011;28680;45.642;13.756;2023-12-14T11:34:33;3.28;;;1.52;;
35646;SDS011;28680;45.642;13.756;2023-12-14T11:36:58;4.13;;;1.98;;
35646;SDS011;28680;45.642;13.756;2023-12-14T11:39:24;6.32;;;2.05;;
35646;SDS011;28680;45.642;13.756;2023-12-14T11:41:58;4.40;;;2.00;;
35646;SDS011;28680;45.642;13.756;2023-12-14T11:44:28;5.03;;;1.70;;
35646;SDS011;28680;45.642;13.756;2023-12-14T11:46:55;3.83;;;1.98;;
35646;SDS011;28680;45.642;13.756;2023-12-14T11:49:24;7.07;;;1.70;;
35646;SDS011;28680;45.642;13.756;2023-12-14T11:51:56;4.18;;;1.73;;
35646;SDS011;28680;45.642;13.756;2023-12-14T11:54:22;5.72;;;1.33;;
35646;SDS011;28680;45.642;13.756;2023-12-14T11:56:48;5.07;;;1.80;;
35646;SDS011;28680;45.642;13.756;2023-12-14T11:59:16;9.65;;;5.63;;
35646;SDS011;28680;45.642;13.756;2023-12-14T12:01:58;4.15;;;1.73;;
35646;SDS011;28680;45.642;13.756;2023-12-14T12:04:26;2.90;;;1.42;;
35646;SDS011;28680;45.642;13.756;2023-12-14T12:06:59;3.28;;;1.10;;
35646;SDS011;28680;45.642;13.756;2023-12-14T12:09:36;3.03;;;1.02;;
35646;SDS011;28680;45.642;13.756;2023-12-14T12:14:35;2.00;;;1.00;;
35646;SDS011;28680;45.642;13.756;2023-12-14T12:17:02;2.80;;;0.98;;
35646;SDS011;28680;45.642;13.756;2023-12-14T12:19:30;3.53;;;0.90;;
35646;SDS011;28680;45.642;13.756;2023-12-14T12:22:03;2.50;;;0.90;;
35646;SDS011;28680;45.642;13.756;2023-12-14T12:24:29;1.50;;;0.95;;
35646;SDS011;28680;45.642;13.756;2023-12-14T12:26:55;2.40;;;1.10;;
35646;SDS011;28680;45.642;13.756;2023-12-14T12:29:22;3.47;;;0.98;;
35646;SDS011;28680;45.642;13.756;2023-12-14T12:31:48;1.73;;;1.00;;
35646;SDS011;28680;45.642;13.756;2023-12-14T12:34:14;3.50;;;1.20;;
35646;SDS011;28680;45.642;13.756;2023-12-14T12:36:40;3.50;;;1.20;;
35646;SDS011;28680;45.642;13.756;2023-12-14T12:39:06;1.73;;;1.40;;
35646;SDS011;28680;45.642;13.756;2023-12-14T12:41:33;3.67;;;1.02;;
35646;SDS011;28680;45.642;13.756;2023-12-14T12:44:02;2.53;;;1.67;;
35646;SDS011;28680;45.642;13.756;2023-12-14T12:46:36;3.45;;;1.30;;
35646;SDS011;28680;45.642;13.756;2023-12-14T12:49:02;2.25;;;1.15;;
35646;SDS011;28680;45.642;13.756;2023-12-14T12:51:29;1.83;;;0.90;;
35646;SDS011;28680;45.642;13.756;2023-12-14T12:53:56;2.38;;;1.00;;
35646;SDS011;28680;45.642;13.756;2023-12-14T12:56:23;7.28;;;1.30;;
35646;SDS011;28680;45.642;13.756;2023-12-14T12:58:50;1.75;;;1.00;;
35646;SDS011;28680;45.642;13.756;2023-12-14T13:01:19;3.58;;;1.20;;
35646;SDS011;28680;45.642;13.756;2023-12-14T13:03:46;3.78;;;1.23;;
35646;SDS011;28680;45.642;13.756;2023-12-14T13:06:12;6.63;;;0.93;;
35646;SDS011;28680;45.642;13.756;2023-12-14T13:08:38;2.97;;;1.30;;
35646;SDS011;28680;45.642;13.756;2023-12-14T13:11:03;1.55;;;1.00;;
35646;SDS011;28680;45.642;13.756;2023-12-14T13:13:29;1.08;;;0.63;;
35646;SDS011;28680;45.642;13.756;2023-12-14T13:15:56;0.90;;;0.63;;
35646;SDS011;28680;45.642;13.756;2023-12-14T13:18:22;3.20;;;0.95;;
35646;SDS011;28680;45.642;13.756;2023-12-14T13:20:47;4.93;;;1.02;;
35646;SDS011;28680;45.642;13.756;2023-12-14T13:23:13;3.95;;;0.80;;
35646;SDS011;28680;45.642;13.756;2023-12-14T13:25:39;3.78;;;0.70;;
35646;SDS011;28680;45.642;13.756;2023-12-14T13:28:05;0.75;;;0.60;;
35646;SDS011;28680;45.642;13.756;2023-12-14T13:30:30;1.65;;;0.73;;
35646;SDS011;28680;45.642;13.756;2023-12-14T13:32:56;2.22;;;0.70;;
35646;SDS011;28680;45.642;13.756;2023-12-14T13:35:22;1.00;;;0.70;;
35646;SDS011;28680;45.642;13.756;2023-12-14T13:37:49;0.90;;;0.57;;
35646;SDS011;28680;45.642;13.756;2023-12-14T13:40:15;1.90;;;0.77;;
35646;SDS011;28680;45.642;13.756;2023-12-14T13:42:42;2.50;;;0.80;;
35646;SDS011;28680;45.642;13.756;2023-12-14T13:45:08;3.75;;;0.90;;
35646;SDS011;28680;45.642;13.756;2023-12-14T13:47:34;2.72;;;1.00;;
35646;SDS011;28680;45.642;13.756;2023-12-14T13:50:00;3.92;;;1.40;;
35646;SDS011;28680;45.642;13.756;2023-12-14T13:52:25;2.50;;;1.20;;
35646;SDS011;28680;45.642;13.756;2023-12-14T13:54:51;1.67;;;1.10;;
35646;SDS011;28680;45.642;13.756;2023-12-14T13:57:17;6.85;;;1.55;;
35646;SDS011;28680;45.642;13.756;2023-12-14T13:59:43;3.70;;;1.58;;
35646;SDS011;28680;45.642;13.756;2023-12-14T14:02:08;5.00;;;1.40;;
35646;SDS011;28680;45.642;13.756;2023-12-14T14:04:36;4.22;;;1.80;;
35646;SDS011;28680;45.642;13.756;2023-12-14T14:07:02;3.28;;;1.50;;
35646;SDS011;28680;45.642;13.756;2023-12-14T14:09:28;9.77;;;2.50;;
35646;SDS011;28680;45.642;13.756;2023-12-14T14:11:53;5.18;;;1.98;;
35646;SDS011;28680;45.642;13.756;2023-12-14T14:14:19;4.43;;;1.85;;
35646;SDS011;28680;45.642;13.756;2023-12-14T14:16:48;3.72;;;1.50;;
35646;SDS011;28680;45.642;13.756;2023-12-14T14:19:14;5.38;;;1.98;;
35646;SDS011;28680;45.642;13.756;2023-12-14T14:21:40;7.00;;;1.60;;
35646;SDS011;28680;45.642;13.756;2023-12-14T14:24:06;4.80;;;1.60;;
35646;SDS011;28680;45.642;13.756;2023-12-14T14:26:32;2.70;;;1.40;;
35646;SDS011;28680;45.642;13.756;2023-12-14T14:28:58;2.55;;;1.55;;
35646;SDS011;28680;45.642;13.756;2023-12-14T14:31:27;4.18;;;2.10;;
35646;SDS011;28680;45.642;13.756;2023-12-14T14:34:00;3.75;;;2.30;;
35646;SDS011;28680;45.642;13.756;2023-12-14T14:36:26;5.53;;;2.05;;
35646;SDS011;28680;45.642;13.756;2023-12-14T14:38:52;4.03;;;1.92;;
35646;SDS011;28680;45.642;13.756;2023-12-14T14:41:20;3.58;;;1.85;;
35646;SDS011;28680;45.642;13.756;2023-12-14T14:43:46;4.22;;;1.88;;
35646;SDS011;28680;45.642;13.756;2023-12-14T14:46:12;5.03;;;1.98;;
35646;SDS011;28680;45.642;13.756;2023-12-14T14:48:38;3.38;;;1.80;;
35646;SDS011;28680;45.642;13.756;2023-12-14T14:51:04;4.38;;;1.90;;
35646;SDS011;28680;45.642;13.756;2023-12-14T14:53:30;29.95;;;13.90;;
35646;SDS011;28680;45.642;13.756;2023-12-14T14:55:56;5.13;;;2.00;;
35646;SDS011;28680;45.642;13.756;2023-12-14T14:58:22;3.92;;;2.08;;
35646;SDS011;28680;45.642;13.756;2023-12-14T15:00:48;5.15;;;2.25;;
35646;SDS011;28680;45.642;13.756;2023-12-14T15:03:14;5.70;;;2.50;;
35646;SDS011;28680;45.642;13.756;2023-12-14T15:05:40;9.32;;;3.28;;
35646;SDS011;28680;45.642;13.756;2023-12-14T15:08:06;9.88;;;3.60;;
35646;SDS011;28680;45.642;13.756;2023-12-14T15:10:32;8.40;;;3.28;;
35646;SDS011;28680;45.642;13.756;2023-12-14T15:12:59;11.15;;;4.18;;
35646;SDS011;28680;45.642;13.756;2023-12-14T15:15:24;9.27;;;3.45;;
35646;SDS011;28680;45.642;13.756;2023-12-14T15:17:50;11.98;;;4.18;;
35646;SDS011;28680;45.642;13.756;2023-12-14T15:20:16;8.27;;;2.97;;
35646;SDS011;28680;45.642;13.756;2023-12-14T15:22:42;8.65;;;3.50;;
35646;SDS011;28680;45.642;13.756;2023-12-14T15:25:08;6.65;;;3.00;;
35646;SDS011;28680;45.642;13.756;2023-12-14T15:27:34;5.05;;;2.90;;
35646;SDS011;28680;45.642;13.756;2023-12-14T15:30:00;5.35;;;2.70;;
35646;SDS011;28680;45.642;13.756;2023-12-14T15:32:26;5.97;;;2.83;;
35646;SDS011;28680;45.642;13.756;2023-12-14T15:34:52;8.00;;;3.13;;
35646;SDS011;28680;45.642;13.756;2023-12-14T15:37:18;6.45;;;3.03;;
35646;SDS011;28680;45.642;13.756;2023-12-14T15:39:44;11.57;;;5.63;;
35646;SDS011;28680;45.642;13.756;2023-12-14T15:42:14;7.00;;;2.63;;
35646;SDS011;28680;45.642;13.756;2023-12-14T15:44:41;5.95;;;2.38;;
35646;SDS011;28680;45.642;13.756;2023-12-14T15:47:07;8.10;;;2.33;;
35646;SDS011;28680;45.642;13.756;2023-12-14T15:49:33;5.45;;;2.28;;
35646;SDS011;28680;45.642;13.756;2023-12-14T15:51:59;6.57;;;2.80;;
35646;SDS011;28680;45.642;13.756;2023-12-14T15:54:24;4.30;;;2.08;;
35646;SDS011;28680;45.642;13.756;2023-12-14T15:56:50;7.60;;;2.45;;
35646;SDS011;28680;45.642;13.756;2023-12-14T15:59:16;5.82;;;2.30;;
35646;SDS011;28680;45.642;13.756;2023-12-14T16:01:45;6.95;;;2.72;;
35646;SDS011;28680;45.642;13.756;2023-12-14T16:04:10;5.65;;;2.03;;
35646;SDS011;28680;45.642;13.756;2023-12-14T16:06:43;3.55;;;1.98;;
35646;SDS011;28680;45.642;13.756;2023-12-14T16:12:06;5.63;;;2.53;;
35646;SDS011;28680;45.642;13.756;2023-12-14T16:14:31;7.22;;;3.08;;
35646;SDS011;28680;45.642;13.756;2023-12-14T16:16:57;7.40;;;3.22;;
35646;SDS011;28680;45.642;13.756;2023-12-14T16:19:23;10.38;;;4.35;;
35646;SDS011;28680;45.642;13.756;2023-12-14T16:21:48;8.57;;;3.72;;
35646;SDS011;28680;45.642;13.756;2023-12-14T16:24:15;7.15;;;2.83;;
35646;SDS011;28680;45.642;13.756;2023-12-14T16:26:42;5.78;;;2.35;;
35646;SDS011;28680;45.642;13.756;2023-12-14T16:29:09;9.40;;;2.92;;
35646;SDS011;28680;45.642;13.756;2023-12-14T16:31:41;6.93;;;2.35;;
35646;SDS011;28680;45.642;13.756;2023-12-14T16:34:07;11.35;;;2.50;;
35646;SDS011;28680;45.642;13.756;2023-12-14T16:36:33;6.75;;;2.33;;
35646;SDS011;28680;45.642;13.756;2023-12-14T16:38:59;8.32;;;3.03;;
35646;SDS011;28680;45.642;13.756;2023-12-14T16:41:25;5.10;;;2.92;;
35646;SDS011;28680;45.642;13.756;2023-12-14T16:43:51;5.68;;;2.65;;
35646;SDS011;28680;45.642;13.756;2023-12-14T16:46:17;7.18;;;4.60;;
35646;SDS011;28680;45.642;13.756;2023-12-14T16:48:43;15.25;;;7.20;;
35646;SDS011;28680;45.642;13.756;2023-12-14T16:51:11;9.98;;;2.30;;
35646;SDS011;28680;45.642;13.756;2023-12-14T16:53:37;8.73;;;3.22;;
35646;SDS011;28680;45.642;13.756;2023-12-14T16:56:03;7.03;;;3.10;;
35646;SDS011;28680;45.642;13.756;2023-12-14T16:58:30;8.07;;;2.90;;
35646;SDS011;28680;45.642;13.756;2023-12-14T17:01:00;3.45;;;2.50;;
35646;SDS011;28680;45.642;13.756;2023-12-14T17:03:26;6.90;;;3.15;;
35646;SDS011;28680;45.642;13.756;2023-12-14T17:05:55;7.07;;;3.33;;
35646;SDS011;28680;45.642;13.756;2023-12-14T17:08:21;6.90;;;2.90;;
35646;SDS011;28680;45.642;13.756;2023-12-14T17:10:48;6.50;;;2.85;;
35646;SDS011;28680;45.642;13.756;2023-12-14T17:13:14;6.50;;;2.63;;
35646;SDS011;28680;45.642;13.756;2023-12-14T17:15:40;6.15;;;2.40;;
35646;SDS011;28680;45.642;13.756;2023-12-14T17:18:06;4.25;;;2.38;;
35646;SDS011;28680;45.642;13.756;2023-12-14T17:20:32;7.05;;;2.53;;
35646;SDS011;28680;45.642;13.756;2023-12-14T17:23:02;4.30;;;2.20;;
35646;SDS011;28680;45.642;13.756;2023-12-14T17:28:11;7.00;;;3.15;;
35646;SDS011;28680;45.642;13.756;2023-12-14T17:30:36;13.63;;;8.30;;
35646;SDS011;28680;45.642;13.756;2023-12-14T17:33:03;6.70;;;3.25;;
35646;SDS011;28680;45.642;13.756;2023-12-14T17:35:31;5.10;;;2.92;;
35646;SDS011;28680;45.642;13.756;2023-12-14T17:37:57;4.40;;;2.40;;
35646;SDS011;28680;45.642;13.756;2023-12-14T17:40:23;5.57;;;2.63;;
35646;SDS011;28680;45.642;13.756;2023-12-14T17:42:50;4.70;;;2.33;;
35646;SDS011;28680;45.642;13.756;2023-12-14T17:45:15;3.67;;;2.25;;
35646;SDS011;28680;45.642;13.756;2023-12-14T17:47:41;6.30;;;2.40;;